sensor_id;sensor_type;location;lat;lon;timestamp;pressure;altitude;pressure_sealevel;temperature;humidity
71889;BME280;59762;49.998;14.858;2022-07-06T00:01:15;97588.06;;;16.27;70.72
71889;BME280;59762;49.998;14.858;2022-07-06T00:03:41;97588.00;;;16.22;70.94
71889;BME280;59762;49.998;14.858;2022-07-06T00:06:07;97589.97;;;16.09;71.85
71889;BME280;59762;49.998;14.858;2022-07-06T00:08:33;97588.81;;;16.05;70.62
71889;BME280;59762;49.998;14.858;2022-07-06T00:10:59;97597.38;;;16.02;71.70
71889;BME280;59762;49.998;14.858;2022-07-06T00:13:24;97591.13;;;15.97;72.04
71889;BME280;59762;49.998;14.858;2022-07-06T00:15:50;97588.59;;;15.90;72.51
71889;BME280;59762;49.998;14.858;2022-07-06T00:18:16;97610.72;;;15.97;70.89
71889;BME280;59762;49.998;14.858;2022-07-06T00:20:41;97601.03;;;15.96;70.96
71889;BME280;59762;49.998;14.858;2022-07-06T00:23:07;97608.63;;;15.99;71.30
71889;BME280;59762;49.998;14.858;2022-07-06T00:25:32;97599.16;;;15.97;69.54
71889;BME280;59762;49.998;14.858;2022-07-06T00:27:58;97598.94;;;15.98;69.66
71889;BME280;59762;49.998;14.858;2022-07-06T00:30:23;97601.78;;;16.08;69.08
71889;BME280;59762;49.998;14.858;2022-07-06T00:32:49;97611.03;;;16.18;68.67
71889;BME280;59762;49.998;14.858;2022-07-06T00:35:15;97609.44;;;16.17;67.72
71889;BME280;59762;49.998;14.858;2022-07-06T00:37:40;97600.78;;;16.14;68.13
71889;BME280;59762;49.998;14.858;2022-07-06T00:40:06;97601.28;;;16.11;69.54
71889;BME280;59762;49.998;14.858;2022-07-06T00:42:43;97597.63;;;16.01;69.46
71889;BME280;59762;49.998;14.858;2022-07-06T00:45:10;97601.38;;;16.00;70.71
71889;BME280;59762;49.998;14.858;2022-07-06T00:47:37;97596.16;;;15.93;70.04
71889;BME280;59762;49.998;14.858;2022-07-06T00:50:06;97587.47;;;15.86;71.25
71889;BME280;59762;49.998;14.858;2022-07-06T00:52:54;97592.44;;;15.77;70.45
71889;BME280;59762;49.998;14.858;2022-07-06T00:55:24;97586.97;;;15.72;70.71
71889;BME280;59762;49.998;14.858;2022-07-06T00:57:51;97591.53;;;15.72;70.35
71889;BME280;59762;49.998;14.858;2022-07-06T01:00:21;97588.53;;;15.68;70.38
71889;BME280;59762;49.998;14.858;2022-07-06T01:02:47;97594.06;;;15.78;70.23
71889;BME280;59762;49.998;14.858;2022-07-06T01:05:14;97596.59;;;15.85;68.91
71889;BME280;59762;49.998;14.858;2022-07-06T01:07:42;97598.03;;;15.93;68.42
71889;BME280;59762;49.998;14.858;2022-07-06T01:10:09;97600.31;;;16.01;67.34
71889;BME280;59762;49.998;14.858;2022-07-06T01:12:37;97596.63;;;16.07;67.17
71889;BME280;59762;49.998;14.858;2022-07-06T01:15:05;97599.91;;;16.09;67.59
71889;BME280;59762;49.998;14.858;2022-07-06T01:17:33;97612.59;;;16.13;67.07
71889;BME280;59762;49.998;14.858;2022-07-06T01:20:22;97620.19;;;16.17;67.42
71889;BME280;59762;49.998;14.858;2022-07-06T01:22:50;97625.69;;;16.10;66.97
71889;BME280;59762;49.998;14.858;2022-07-06T01:25:17;97629.94;;;16.06;66.97
71889;BME280;59762;49.998;14.858;2022-07-06T01:27:43;97624.41;;;15.96;66.85
71889;BME280;59762;49.998;14.858;2022-07-06T01:30:11;97641.31;;;15.79;67.18
71889;BME280;59762;49.998;14.858;2022-07-06T01:32:40;97626.34;;;15.67;67.72
71889;BME280;59762;49.998;14.858;2022-07-06T01:35:07;97636.16;;;15.61;68.03
71889;BME280;59762;49.998;14.858;2022-07-06T01:37:33;97637.03;;;15.50;68.84
71889;BME280;59762;49.998;14.858;2022-07-06T01:40:00;97641.88;;;15.36;68.73
71889;BME280;59762;49.998;14.858;2022-07-06T01:42:26;97648.78;;;15.32;69.61
71889;BME280;59762;49.998;14.858;2022-07-06T01:44:53;97651.84;;;15.24;70.19
71889;BME280;59762;49.998;14.858;2022-07-06T01:47:19;97644.19;;;15.16;71.16
71889;BME280;59762;49.998;14.858;2022-07-06T01:49:44;97645.13;;;15.09;72.37
71889;BME280;59762;49.998;14.858;2022-07-06T01:52:10;97638.38;;;15.07;72.33
71889;BME280;59762;49.998;14.858;2022-07-06T01:54:36;97637.13;;;14.98;73.23
71889;BME280;59762;49.998;14.858;2022-07-06T01:57:01;97649.94;;;14.96;72.77
71889;BME280;59762;49.998;14.858;2022-07-06T01:59:27;97648.56;;;14.93;73.33
71889;BME280;59762;49.998;14.858;2022-07-06T02:01:52;97650.56;;;14.86;73.82
71889;BME280;59762;49.998;14.858;2022-07-06T02:04:18;97653.38;;;14.79;72.93
71889;BME280;59762;49.998;14.858;2022-07-06T02:06:43;97651.63;;;14.73;73.89
71889;BME280;59762;49.998;14.858;2022-07-06T02:09:09;97648.28;;;14.66;73.36
71889;BME280;59762;49.998;14.858;2022-07-06T02:11:34;97652.13;;;14.58;73.25
71889;BME280;59762;49.998;14.858;2022-07-06T02:14:00;97645.59;;;14.54;72.28
71889;BME280;59762;49.998;14.858;2022-07-06T02:16:26;97648.53;;;14.53;73.34
71889;BME280;59762;49.998;14.858;2022-07-06T02:18:51;97636.25;;;14.45;73.06
71889;BME280;59762;49.998;14.858;2022-07-06T02:21:17;97643.84;;;14.36;73.02
71889;BME280;59762;49.998;14.858;2022-07-06T02:23:42;97647.09;;;14.27;73.39
71889;BME280;59762;49.998;14.858;2022-07-06T02:26:08;97651.84;;;14.25;73.45
71889;BME280;59762;49.998;14.858;2022-07-06T02:28:33;97649.56;;;14.17;73.93
71889;BME280;59762;49.998;14.858;2022-07-06T02:30:59;97654.91;;;14.17;74.00
71889;BME280;59762;49.998;14.858;2022-07-06T02:33:25;97648.84;;;14.09;73.31
71889;BME280;59762;49.998;14.858;2022-07-06T02:35:50;97643.47;;;14.09;72.43
71889;BME280;59762;49.998;14.858;2022-07-06T02:38:16;97644.28;;;14.10;72.05
71889;BME280;59762;49.998;14.858;2022-07-06T02:40:41;97644.53;;;14.08;72.66
71889;BME280;59762;49.998;14.858;2022-07-06T02:43:07;97650.34;;;14.05;72.65
71889;BME280;59762;49.998;14.858;2022-07-06T02:45:33;97643.25;;;13.99;71.85
71889;BME280;59762;49.998;14.858;2022-07-06T02:47:58;97641.16;;;14.01;71.75
71889;BME280;59762;49.998;14.858;2022-07-06T02:50:25;97649.19;;;14.01;72.45
71889;BME280;59762;49.998;14.858;2022-07-06T02:52:51;97648.59;;;13.99;71.93
71889;BME280;59762;49.998;14.858;2022-07-06T02:55:17;97646.72;;;13.88;72.19
71889;BME280;59762;49.998;14.858;2022-07-06T02:57:42;97650.19;;;13.88;72.38
71889;BME280;59762;49.998;14.858;2022-07-06T03:00:09;97648.66;;;13.81;72.07
71889;BME280;59762;49.998;14.858;2022-07-06T03:02:35;97650.53;;;13.80;73.53
71889;BME280;59762;49.998;14.858;2022-07-06T03:05:01;97659.25;;;13.76;72.43
71889;BME280;59762;49.998;14.858;2022-07-06T03:07:27;97665.66;;;13.75;72.98
71889;BME280;59762;49.998;14.858;2022-07-06T03:09:53;97669.16;;;13.75;73.30
71889;BME280;59762;49.998;14.858;2022-07-06T03:12:18;97670.56;;;13.78;72.85
71889;BME280;59762;49.998;14.858;2022-07-06T03:14:44;97672.75;;;13.81;72.91
71889;BME280;59762;49.998;14.858;2022-07-06T03:17:10;97672.75;;;13.81;72.21
71889;BME280;59762;49.998;14.858;2022-07-06T03:19:35;97682.81;;;13.97;72.70
71889;BME280;59762;49.998;14.858;2022-07-06T03:22:01;97683.66;;;14.09;71.20
71889;BME280;59762;49.998;14.858;2022-07-06T03:24:27;97686.56;;;14.20;71.91
71889;BME280;59762;49.998;14.858;2022-07-06T03:26:53;97678.19;;;14.28;72.30
71889;BME280;59762;49.998;14.858;2022-07-06T03:29:18;97680.63;;;14.29;72.50
71889;BME280;59762;49.998;14.858;2022-07-06T03:31:44;97678.81;;;14.30;68.82
71889;BME280;59762;49.998;14.858;2022-07-06T03:34:09;97665.50;;;14.35;68.87
71889;BME280;59762;49.998;14.858;2022-07-06T03:36:35;97671.66;;;14.47;68.98
71889;BME280;59762;49.998;14.858;2022-07-06T03:39:01;97669.69;;;14.43;69.01
71889;BME280;59762;49.998;14.858;2022-07-06T03:41:26;97677.25;;;14.34;70.95
71889;BME280;59762;49.998;14.858;2022-07-06T03:43:52;97684.97;;;14.30;71.62
71889;BME280;59762;49.998;14.858;2022-07-06T03:46:17;97686.94;;;14.23;70.69
71889;BME280;59762;49.998;14.858;2022-07-06T03:48:43;97677.59;;;14.14;71.83
71889;BME280;59762;49.998;14.858;2022-07-06T03:51:08;97688.19;;;14.21;72.45
71889;BME280;59762;49.998;14.858;2022-07-06T03:53:35;97679.59;;;14.19;70.50
71889;BME280;59762;49.998;14.858;2022-07-06T03:56:01;97675.66;;;14.21;71.36
71889;BME280;59762;49.998;14.858;2022-07-06T03:58:45;97679.47;;;14.25;70.65
71889;BME280;59762;49.998;14.858;2022-07-06T04:01:11;97666.91;;;14.26;72.02
71889;BME280;59762;49.998;14.858;2022-07-06T04:03:36;97689.16;;;14.38;70.70
71889;BME280;59762;49.998;14.858;2022-07-06T04:06:02;97698.84;;;14.39;69.80
71889;BME280;59762;49.998;14.858;2022-07-06T04:08:28;97693.09;;;14.47;70.63
71889;BME280;59762;49.998;14.858;2022-07-06T04:10:53;97685.81;;;14.66;69.50
71889;BME280;59762;49.998;14.858;2022-07-06T04:13:19;97674.13;;;14.84;68.69
71889;BME280;59762;49.998;14.858;2022-07-06T04:15:44;97675.19;;;15.97;66.71
71889;BME280;59762;49.998;14.858;2022-07-06T04:18:10;97671.91;;;16.62;62.04
71889;BME280;59762;49.998;14.858;2022-07-06T04:20:36;97673.41;;;17.36;59.65
71889;BME280;59762;49.998;14.858;2022-07-06T04:23:01;97670.78;;;18.27;57.42
71889;BME280;59762;49.998;14.858;2022-07-06T04:25:27;97664.53;;;19.06;54.82
71889;BME280;59762;49.998;14.858;2022-07-06T04:27:53;97673.06;;;19.56;53.44
71889;BME280;59762;49.998;14.858;2022-07-06T04:30:18;97677.16;;;19.74;52.46
71889;BME280;59762;49.998;14.858;2022-07-06T04:32:44;97684.78;;;20.38;51.80
71889;BME280;59762;49.998;14.858;2022-07-06T04:35:10;97695.88;;;20.11;51.49
71889;BME280;59762;49.998;14.858;2022-07-06T04:37:35;97695.88;;;20.47;51.48
71889;BME280;59762;49.998;14.858;2022-07-06T04:40:01;97705.88;;;20.61;50.08
71889;BME280;59762;49.998;14.858;2022-07-06T04:42:27;97714.00;;;20.15;51.08
71889;BME280;59762;49.998;14.858;2022-07-06T04:44:52;97723.97;;;20.91;50.89
71889;BME280;59762;49.998;14.858;2022-07-06T04:47:17;97722.22;;;21.41;48.49
71889;BME280;59762;49.998;14.858;2022-07-06T04:49:44;97730.97;;;21.13;48.85
71889;BME280;59762;49.998;14.858;2022-07-06T04:52:09;97730.50;;;20.75;49.93
71889;BME280;59762;49.998;14.858;2022-07-06T04:54:35;97737.22;;;18.76;54.31
71889;BME280;59762;49.998;14.858;2022-07-06T04:57:00;97732.88;;;17.56;59.46
71889;BME280;59762;49.998;14.858;2022-07-06T04:59:26;97732.94;;;17.18;60.81
71889;BME280;59762;49.998;14.858;2022-07-06T05:01:51;97723.72;;;18.76;55.47
71889;BME280;59762;49.998;14.858;2022-07-06T05:04:17;97729.34;;;19.11;54.75
71889;BME280;59762;49.998;14.858;2022-07-06T05:06:46;97748.50;;;19.68;53.75
71889;BME280;59762;49.998;14.858;2022-07-06T05:09:12;97751.06;;;19.37;52.54
71889;BME280;59762;49.998;14.858;2022-07-06T05:11:38;97761.06;;;20.14;52.32
71889;BME280;59762;49.998;14.858;2022-07-06T05:14:04;97761.09;;;20.86;50.74
71889;BME280;59762;49.998;14.858;2022-07-06T05:16:30;97765.63;;;18.83;53.60
71889;BME280;59762;49.998;14.858;2022-07-06T05:18:56;97775.53;;;17.64;57.15
71889;BME280;59762;49.998;14.858;2022-07-06T05:21:21;97775.41;;;17.32;58.90
71889;BME280;59762;49.998;14.858;2022-07-06T05:23:47;97780.69;;;17.05;59.68
71889;BME280;59762;49.998;14.858;2022-07-06T05:26:12;97783.31;;;16.67;60.42
71889;BME280;59762;49.998;14.858;2022-07-06T05:28:38;97781.59;;;16.44;61.86
71889;BME280;59762;49.998;14.858;2022-07-06T05:31:04;97776.16;;;16.38;63.01
71889;BME280;59762;49.998;14.858;2022-07-06T05:33:29;97773.56;;;16.15;61.66
71889;BME280;59762;49.998;14.858;2022-07-06T05:35:55;97773.50;;;16.10;63.57
71889;BME280;59762;49.998;14.858;2022-07-06T05:38:20;97766.94;;;16.34;63.72
71889;BME280;59762;49.998;14.858;2022-07-06T05:40:47;97768.72;;;16.46;64.07
71889;BME280;59762;49.998;14.858;2022-07-06T05:43:13;97764.28;;;16.06;63.04
71889;BME280;59762;49.998;14.858;2022-07-06T05:45:38;97770.16;;;16.03;64.57
71889;BME280;59762;49.998;14.858;2022-07-06T05:48:04;97761.88;;;16.21;64.60
71889;BME280;59762;49.998;14.858;2022-07-06T05:50:48;97745.84;;;15.81;64.76
71889;BME280;59762;49.998;14.858;2022-07-06T05:53:14;97763.44;;;15.88;65.35
71889;BME280;59762;49.998;14.858;2022-07-06T05:55:39;97755.53;;;15.82;67.09
71889;BME280;59762;49.998;14.858;2022-07-06T05:58:05;97754.53;;;15.59;65.70
71889;BME280;59762;49.998;14.858;2022-07-06T06:00:31;97745.69;;;15.59;67.07
71889;BME280;59762;49.998;14.858;2022-07-06T06:02:58;97740.69;;;15.51;68.44
71889;BME280;59762;49.998;14.858;2022-07-06T06:05:24;97737.41;;;15.49;67.26
71889;BME280;59762;49.998;14.858;2022-07-06T06:07:50;97743.28;;;15.46;67.90
71889;BME280;59762;49.998;14.858;2022-07-06T06:10:17;97746.28;;;15.49;66.28
71889;BME280;59762;49.998;14.858;2022-07-06T06:12:43;97747.44;;;15.53;67.39
71889;BME280;59762;49.998;14.858;2022-07-06T06:15:10;97742.75;;;15.60;66.78
71889;BME280;59762;49.998;14.858;2022-07-06T06:17:36;97745.84;;;15.81;67.84
71889;BME280;59762;49.998;14.858;2022-07-06T06:20:06;97746.19;;;16.01;66.22
71889;BME280;59762;49.998;14.858;2022-07-06T06:22:50;97745.72;;;16.04;66.26
71889;BME280;59762;49.998;14.858;2022-07-06T06:25:18;97739.81;;;16.36;66.03
71889;BME280;59762;49.998;14.858;2022-07-06T06:27:44;97734.59;;;16.46;65.10
71889;BME280;59762;49.998;14.858;2022-07-06T06:30:10;97738.63;;;17.21;63.43
71889;BME280;59762;49.998;14.858;2022-07-06T06:32:36;97756.53;;;18.62;59.54
71889;BME280;59762;49.998;14.858;2022-07-06T06:35:02;97757.84;;;18.92;58.77
71889;BME280;59762;49.998;14.858;2022-07-06T06:37:28;97752.63;;;19.96;55.48
71889;BME280;59762;49.998;14.858;2022-07-06T06:39:53;97750.28;;;20.65;54.54
71889;BME280;59762;49.998;14.858;2022-07-06T06:42:19;97744.25;;;21.04;52.51
71889;BME280;59762;49.998;14.858;2022-07-06T06:44:44;97739.91;;;20.98;53.09
71889;BME280;59762;49.998;14.858;2022-07-06T06:47:10;97745.91;;;21.00;50.85
71889;BME280;59762;49.998;14.858;2022-07-06T06:49:35;97747.00;;;20.38;52.53
71889;BME280;59762;49.998;14.858;2022-07-06T06:52:01;97748.53;;;19.78;54.35
71889;BME280;59762;49.998;14.858;2022-07-06T06:54:26;97751.50;;;19.13;53.16
71889;BME280;59762;49.998;14.858;2022-07-06T06:56:52;97751.88;;;18.90;54.94
71889;BME280;59762;49.998;14.858;2022-07-06T06:59:17;97762.31;;;18.44;56.68
71889;BME280;59762;49.998;14.858;2022-07-06T07:01:43;97763.38;;;18.38;58.00
71889;BME280;59762;49.998;14.858;2022-07-06T07:04:09;97764.19;;;18.38;57.71
71889;BME280;59762;49.998;14.858;2022-07-06T07:06:34;97771.00;;;18.19;57.71
71889;BME280;59762;49.998;14.858;2022-07-06T07:09:00;97781.94;;;18.07;57.03
71889;BME280;59762;49.998;14.858;2022-07-06T07:11:26;97776.34;;;18.14;57.12
71889;BME280;59762;49.998;14.858;2022-07-06T07:13:51;97778.84;;;18.21;56.53
71889;BME280;59762;49.998;14.858;2022-07-06T07:16:17;97782.00;;;18.12;55.66
71889;BME280;59762;49.998;14.858;2022-07-06T07:18:43;97778.50;;;18.12;55.49
71889;BME280;59762;49.998;14.858;2022-07-06T07:21:08;97794.72;;;18.17;57.04
71889;BME280;59762;49.998;14.858;2022-07-06T07:23:34;97801.59;;;18.30;55.68
71889;BME280;59762;49.998;14.858;2022-07-06T07:25:59;97788.69;;;18.10;54.30
71889;BME280;59762;49.998;14.858;2022-07-06T07:28:25;97798.47;;;18.16;56.26
71889;BME280;59762;49.998;14.858;2022-07-06T07:30:50;97787.13;;;18.14;56.78
71889;BME280;59762;49.998;14.858;2022-07-06T07:33:16;97792.56;;;17.92;55.40
71889;BME280;59762;49.998;14.858;2022-07-06T07:35:41;97793.84;;;18.11;57.74
71889;BME280;59762;49.998;14.858;2022-07-06T07:38:07;97796.81;;;17.88;55.32
71889;BME280;59762;49.998;14.858;2022-07-06T07:40:33;97795.00;;;17.72;56.28
71889;BME280;59762;49.998;14.858;2022-07-06T07:43:00;97797.34;;;17.63;55.97
71889;BME280;59762;49.998;14.858;2022-07-06T07:45:26;97798.09;;;17.80;55.01
71889;BME280;59762;49.998;14.858;2022-07-06T07:47:51;97784.03;;;18.00;54.87
71889;BME280;59762;49.998;14.858;2022-07-06T07:50:17;97797.03;;;18.35;56.22
71889;BME280;59762;49.998;14.858;2022-07-06T07:52:43;97788.81;;;18.20;54.67
71889;BME280;59762;49.998;14.858;2022-07-06T07:55:09;97800.00;;;18.34;55.52
71889;BME280;59762;49.998;14.858;2022-07-06T07:57:35;97786.41;;;18.51;57.02
71889;BME280;59762;49.998;14.858;2022-07-06T08:00:01;97799.78;;;18.40;54.54
71889;BME280;59762;49.998;14.858;2022-07-06T08:02:27;97798.03;;;18.56;55.38
71889;BME280;59762;49.998;14.858;2022-07-06T08:04:52;97792.75;;;18.39;54.46
71889;BME280;59762;49.998;14.858;2022-07-06T08:07:18;97801.06;;;18.33;53.71
71889;BME280;59762;49.998;14.858;2022-07-06T08:09:44;97797.44;;;18.49;53.48
71889;BME280;59762;49.998;14.858;2022-07-06T08:12:09;97795.31;;;18.51;52.66
71889;BME280;59762;49.998;14.858;2022-07-06T08:14:35;97794.97;;;18.43;53.91
71889;BME280;59762;49.998;14.858;2022-07-06T08:17:03;97800.50;;;18.63;53.52
71889;BME280;59762;49.998;14.858;2022-07-06T08:19:28;97787.16;;;18.73;50.35
71889;BME280;59762;49.998;14.858;2022-07-06T08:21:56;97795.72;;;18.38;52.65
71889;BME280;59762;49.998;14.858;2022-07-06T08:24:22;97785.03;;;18.48;52.06
71889;BME280;59762;49.998;14.858;2022-07-06T08:26:47;97789.63;;;18.53;51.19
71889;BME280;59762;49.998;14.858;2022-07-06T08:29:13;97796.28;;;18.72;52.52
71889;BME280;59762;49.998;14.858;2022-07-06T08:31:39;97792.25;;;18.70;52.35
71889;BME280;59762;49.998;14.858;2022-07-06T08:34:04;97790.19;;;18.82;51.46
71889;BME280;59762;49.998;14.858;2022-07-06T08:36:30;97794.50;;;18.83;52.06
71889;BME280;59762;49.998;14.858;2022-07-06T08:38:56;97793.06;;;18.70;50.59
71889;BME280;59762;49.998;14.858;2022-07-06T08:41:23;97793.34;;;18.74;52.20
71889;BME280;59762;49.998;14.858;2022-07-06T08:43:50;97793.66;;;18.77;51.41
71889;BME280;59762;49.998;14.858;2022-07-06T08:46:16;97796.41;;;18.87;50.45
71889;BME280;59762;49.998;14.858;2022-07-06T08:48:41;97804.38;;;19.04;48.43
71889;BME280;59762;49.998;14.858;2022-07-06T08:51:08;97798.53;;;19.23;49.18
71889;BME280;59762;49.998;14.858;2022-07-06T08:53:34;97797.88;;;19.53;47.64
71889;BME280;59762;49.998;14.858;2022-07-06T08:56:01;97797.66;;;19.64;49.85
71889;BME280;59762;49.998;14.858;2022-07-06T08:58:27;97794.13;;;19.11;46.65
71889;BME280;59762;49.998;14.858;2022-07-06T09:00:57;97798.03;;;19.31;48.25
71889;BME280;59762;49.998;14.858;2022-07-06T09:03:23;97795.69;;;19.50;47.40
71889;BME280;59762;49.998;14.858;2022-07-06T09:05:50;97797.13;;;19.62;47.91
71889;BME280;59762;49.998;14.858;2022-07-06T09:08:18;97790.59;;;19.53;45.69
71889;BME280;59762;49.998;14.858;2022-07-06T09:10:44;97804.31;;;19.41;44.98
71889;BME280;59762;49.998;14.858;2022-07-06T09:13:10;97793.56;;;19.57;46.80
71889;BME280;59762;49.998;14.858;2022-07-06T09:15:37;97798.97;;;19.57;44.85
71889;BME280;59762;49.998;14.858;2022-07-06T09:18:06;97790.66;;;19.69;47.04
71889;BME280;59762;49.998;14.858;2022-07-06T09:20:32;97802.28;;;19.69;47.28
71889;BME280;59762;49.998;14.858;2022-07-06T09:22:59;97800.44;;;19.75;47.23
71889;BME280;59762;49.998;14.858;2022-07-06T09:25:26;97794.50;;;19.83;45.48
71889;BME280;59762;49.998;14.858;2022-07-06T09:27:52;97803.47;;;20.04;47.07
71889;BME280;59762;49.998;14.858;2022-07-06T09:30:22;97797.47;;;19.86;48.23
71889;BME280;59762;49.998;14.858;2022-07-06T09:32:53;97796.44;;;19.93;44.71
71889;BME280;59762;49.998;14.858;2022-07-06T09:35:26;97794.28;;;20.00;45.38
71889;BME280;59762;49.998;14.858;2022-07-06T09:40:29;97791.41;;;20.62;45.29
71889;BME280;59762;49.998;14.858;2022-07-06T09:45:42;97789.19;;;20.24;45.80
71889;BME280;59762;49.998;14.858;2022-07-06T09:48:18;97799.53;;;20.62;44.04
71889;BME280;59762;49.998;14.858;2022-07-06T09:50:48;97789.78;;;20.72;46.40
71889;BME280;59762;49.998;14.858;2022-07-06T09:53:17;97798.69;;;20.47;46.32
71889;BME280;59762;49.998;14.858;2022-07-06T09:55:44;97794.66;;;20.64;44.09
71889;BME280;59762;49.998;14.858;2022-07-06T09:58:10;97796.50;;;21.15;45.45
71889;BME280;59762;49.998;14.858;2022-07-06T10:00:36;97796.25;;;21.16;43.37
71889;BME280;59762;49.998;14.858;2022-07-06T10:03:01;97794.28;;;21.48;43.21
71889;BME280;59762;49.998;14.858;2022-07-06T10:05:28;97794.84;;;21.45;43.34
71889;BME280;59762;49.998;14.858;2022-07-06T10:07:59;97795.72;;;20.99;43.53
71889;BME280;59762;49.998;14.858;2022-07-06T10:10:27;97793.31;;;20.57;44.32
71889;BME280;59762;49.998;14.858;2022-07-06T10:12:57;97795.47;;;20.55;44.47
71889;BME280;59762;49.998;14.858;2022-07-06T10:15:28;97792.25;;;20.63;45.42
71889;BME280;59762;49.998;14.858;2022-07-06T10:17:56;97790.06;;;20.90;46.12
71889;BME280;59762;49.998;14.858;2022-07-06T10:20:22;97795.22;;;20.51;44.42
71889;BME280;59762;49.998;14.858;2022-07-06T10:22:48;97797.84;;;20.26;47.34
71889;BME280;59762;49.998;14.858;2022-07-06T10:25:18;97785.41;;;20.35;47.79
71889;BME280;59762;49.998;14.858;2022-07-06T10:27:45;97780.59;;;20.52;46.67
71889;BME280;59762;49.998;14.858;2022-07-06T10:30:11;97780.03;;;20.91;44.89
71889;BME280;59762;49.998;14.858;2022-07-06T10:32:39;97784.03;;;21.34;43.80
71889;BME280;59762;49.998;14.858;2022-07-06T10:35:05;97784.78;;;21.50;43.91
71889;BME280;59762;49.998;14.858;2022-07-06T10:37:31;97773.03;;;21.75;42.97
71889;BME280;59762;49.998;14.858;2022-07-06T10:39:59;97785.31;;;21.52;41.52
71889;BME280;59762;49.998;14.858;2022-07-06T10:42:47;97776.38;;;22.06;44.45
71889;BME280;59762;49.998;14.858;2022-07-06T10:50:55;97771.34;;;20.89;44.66
71889;BME280;59762;49.998;14.858;2022-07-06T10:53:31;97771.06;;;20.29;43.91
71889;BME280;59762;49.998;14.858;2022-07-06T10:56:03;97763.16;;;19.92;46.06
71889;BME280;59762;49.998;14.858;2022-07-06T10:58:35;97767.28;;;19.42;44.03
71889;BME280;59762;49.998;14.858;2022-07-06T11:01:02;97781.91;;;19.46;48.36
71889;BME280;59762;49.998;14.858;2022-07-06T11:03:42;97780.47;;;19.33;47.42
71889;BME280;59762;49.998;14.858;2022-07-06T11:06:18;97785.56;;;19.25;46.04
71889;BME280;59762;49.998;14.858;2022-07-06T11:11:14;97788.06;;;19.99;44.75
71889;BME280;59762;49.998;14.858;2022-07-06T11:16:18;97786.25;;;20.71;46.93
71889;BME280;59762;49.998;14.858;2022-07-06T11:19:09;97786.28;;;20.56;46.62
71889;BME280;59762;49.998;14.858;2022-07-06T11:21:37;97790.53;;;20.06;47.46
71889;BME280;59762;49.998;14.858;2022-07-06T11:24:05;97790.81;;;20.14;48.86
71889;BME280;59762;49.998;14.858;2022-07-06T11:26:31;97785.38;;;20.04;47.64
71889;BME280;59762;49.998;14.858;2022-07-06T11:28:59;97788.06;;;19.99;48.34
71889;BME280;59762;49.998;14.858;2022-07-06T11:31:27;97789.09;;;19.83;45.98
71889;BME280;59762;49.998;14.858;2022-07-06T11:33:53;97783.13;;;19.71;46.52
71889;BME280;59762;49.998;14.858;2022-07-06T11:36:20;97790.13;;;19.67;47.11
71889;BME280;59762;49.998;14.858;2022-07-06T11:38:47;97795.69;;;19.50;46.61
71889;BME280;59762;49.998;14.858;2022-07-06T11:41:14;97791.53;;;19.84;49.77
71889;BME280;59762;49.998;14.858;2022-07-06T11:43:42;97796.00;;;20.47;48.98
71889;BME280;59762;49.998;14.858;2022-07-06T11:46:26;97790.06;;;20.65;47.06
71889;BME280;59762;49.998;14.858;2022-07-06T11:51:29;97790.31;;;21.04;45.37
71889;BME280;59762;49.998;14.858;2022-07-06T11:53:57;97791.94;;;20.75;45.92
71889;BME280;59762;49.998;14.858;2022-07-06T11:56:25;97790.00;;;20.34;46.11
71889;BME280;59762;49.998;14.858;2022-07-06T11:58:56;97780.75;;;19.89;45.88
71889;BME280;59762;49.998;14.858;2022-07-06T12:01:24;97775.00;;;19.71;47.47
71889;BME280;59762;49.998;14.858;2022-07-06T12:03:51;97774.34;;;19.48;48.08
71889;BME280;59762;49.998;14.858;2022-07-06T12:06:22;97773.38;;;19.70;48.74
71889;BME280;59762;49.998;14.858;2022-07-06T12:08:53;97774.31;;;20.31;47.05
71889;BME280;59762;49.998;14.858;2022-07-06T12:11:29;97767.53;;;21.21;46.58
71889;BME280;59762;49.998;14.858;2022-07-06T12:14:11;97764.56;;;21.87;45.92
71889;BME280;59762;49.998;14.858;2022-07-06T12:16:39;97769.25;;;22.21;43.13
71889;BME280;59762;49.998;14.858;2022-07-06T12:19:05;97775.59;;;21.41;43.24
71889;BME280;59762;49.998;14.858;2022-07-06T12:21:33;97762.72;;;20.41;43.58
71889;BME280;59762;49.998;14.858;2022-07-06T12:23:59;97767.50;;;19.98;46.58
71889;BME280;59762;49.998;14.858;2022-07-06T12:26:27;97763.28;;;19.55;46.81
71889;BME280;59762;49.998;14.858;2022-07-06T12:29:08;97764.06;;;19.40;48.91
71889;BME280;59762;49.998;14.858;2022-07-06T12:31:52;97760.88;;;19.58;49.47
71889;BME280;59762;49.998;14.858;2022-07-06T12:34:20;97758.38;;;20.20;46.98
71889;BME280;59762;49.998;14.858;2022-07-06T12:36:55;97753.53;;;20.68;46.89
71889;BME280;59762;49.998;14.858;2022-07-06T12:39:25;97764.03;;;20.44;44.73
71889;BME280;59762;49.998;14.858;2022-07-06T12:42:01;97755.66;;;20.40;46.87
71889;BME280;59762;49.998;14.858;2022-07-06T12:44:28;97753.50;;;20.47;44.22
71889;BME280;59762;49.998;14.858;2022-07-06T12:47:08;97755.66;;;20.91;44.88
71889;BME280;59762;49.998;14.858;2022-07-06T12:49:38;97761.00;;;21.22;47.11
71889;BME280;59762;49.998;14.858;2022-07-06T12:54:44;97761.09;;;20.76;45.00
71889;BME280;59762;49.998;14.858;2022-07-06T12:57:14;97757.59;;;20.60;45.29
71889;BME280;59762;49.998;14.858;2022-07-06T13:02:30;97749.16;;;20.87;44.71
71889;BME280;59762;49.998;14.858;2022-07-06T13:07:33;97753.50;;;20.62;43.33
71889;BME280;59762;49.998;14.858;2022-07-06T13:10:06;97753.22;;;21.00;44.17
71889;BME280;59762;49.998;14.858;2022-07-06T13:12:32;97742.94;;;20.71;43.72
71889;BME280;59762;49.998;14.858;2022-07-06T13:14:58;97737.28;;;20.57;44.54
71889;BME280;59762;49.998;14.858;2022-07-06T13:17:24;97730.75;;;20.89;43.66